createdAt,value
2018-12-03T00:01:37.039Z,2.63
2018-12-03T00:04:15.472Z,4.80
2018-12-03T00:06:44.640Z,2.33
2018-12-03T00:09:13.511Z,1.93
2018-12-03T00:11:42.306Z,3.67
2018-12-03T00:14:11.154Z,2.33
2018-12-03T00:16:39.984Z,1.70
2018-12-03T00:19:09.132Z,2.43
2018-12-03T00:21:37.980Z,1.70
2018-12-03T00:24:07.496Z,3.17
2018-12-03T00:26:36.437Z,2.03
2018-12-03T00:29:05.688Z,2.77
2018-12-03T00:31:34.549Z,2.33
2018-12-03T00:34:03.422Z,3.57
2018-12-03T00:36:32.271Z,1.70
2018-12-03T00:39:01.145Z,4.27
2018-12-03T00:41:29.976Z,2.30
2018-12-03T00:43:58.856Z,0.97
2018-12-03T00:46:27.673Z,1.50
2018-12-03T00:48:56.515Z,1.70
2018-12-03T00:51:25.315Z,2.13
2018-12-03T00:53:54.147Z,3.03
2018-12-03T00:56:22.946Z,1.60
2018-12-03T00:58:52.544Z,1.60
2018-12-03T01:01:21.418Z,1.73
2018-12-03T01:03:50.281Z,3.50
2018-12-03T01:06:19.084Z,1.80
2018-12-03T01:08:47.924Z,1.50
2018-12-03T01:11:16.739Z,3.87
2018-12-03T01:13:45.559Z,1.40
2018-12-03T01:16:14.367Z,2.87
2018-12-03T01:18:43.200Z,1.73
2018-12-03T01:21:12.021Z,2.50
2018-12-03T01:23:40.856Z,2.03
2018-12-03T01:26:09.771Z,2.23
2018-12-03T01:28:38.608Z,1.30
2018-12-03T01:31:07.418Z,4.63
2018-12-03T01:33:36.252Z,3.87
2018-12-03T01:36:05.199Z,1.70
2018-12-03T01:38:34.042Z,1.43
2018-12-03T01:41:02.847Z,2.33
2018-12-03T01:43:31.671Z,2.50
2018-12-03T01:46:00.487Z,1.47
2018-12-03T01:48:29.328Z,1.83
2018-12-03T01:50:58.136Z,2.30
2018-12-03T01:53:26.977Z,2.77
2018-12-03T01:55:55.787Z,1.67
2018-12-03T01:58:24.625Z,4.27
2018-12-03T02:00:53.472Z,1.67
2018-12-03T02:03:22.316Z,1.40
2018-12-03T02:05:51.116Z,3.20
2018-12-03T02:08:19.974Z,1.50
2018-12-03T02:10:48.808Z,1.80
2018-12-03T02:13:17.647Z,3.97
2018-12-03T02:15:46.464Z,1.57
2018-12-03T02:18:15.303Z,2.03
2018-12-03T02:20:44.147Z,3.90
2018-12-03T02:23:12.965Z,2.33
2018-12-03T02:25:42.243Z,2.20
2018-12-03T02:28:11.072Z,1.40
2018-12-03T02:30:39.903Z,2.17
2018-12-03T02:33:08.716Z,2.73
2018-12-03T02:35:37.558Z,1.40
2018-12-03T02:38:06.402Z,1.00
2018-12-03T02:40:35.236Z,1.73
2018-12-03T02:43:04.107Z,1.17
2018-12-03T02:45:32.948Z,1.07
2018-12-03T02:48:01.767Z,1.10
2018-12-03T02:50:30.596Z,2.10
2018-12-03T02:52:59.411Z,0.70
2018-12-03T02:55:29.607Z,0.80
2018-12-03T02:57:58.430Z,1.47
2018-12-03T03:00:27.311Z,1.40
2018-12-03T03:02:56.115Z,1.97
2018-12-03T03:05:24.960Z,1.20
2018-12-03T03:07:53.799Z,0.97
2018-12-03T03:10:22.638Z,0.80
2018-12-03T03:12:51.469Z,0.97
2018-12-03T03:15:20.307Z,0.77
2018-12-03T03:17:49.112Z,0.50
2018-12-03T03:20:17.944Z,0.60
2018-12-03T03:22:46.748Z,1.43
2018-12-03T03:25:17.052Z,0.50
2018-12-03T03:27:45.864Z,0.57
2018-12-03T03:30:15.451Z,0.43
2018-12-03T03:32:44.317Z,0.23
2018-12-03T03:35:14.049Z,0.50
2018-12-03T03:37:42.899Z,1.80
2018-12-03T03:40:14.854Z,2.57
2018-12-03T03:42:44.934Z,1.43
2018-12-03T03:45:15.269Z,1.47
2018-12-03T03:47:44.096Z,0.97
2018-12-03T03:50:12.942Z,1.80
2018-12-03T03:52:41.759Z,1.73
2018-12-03T03:55:11.911Z,0.40
2018-12-03T03:57:40.726Z,0.83
2018-12-03T04:00:11.108Z,0.43
2018-12-03T04:02:40.016Z,0.60
2018-12-03T04:05:10.121Z,1.27
2018-12-03T04:07:39.007Z,2.03
2018-12-03T04:10:10.279Z,0.87
2018-12-03T04:12:39.199Z,1.57
2018-12-03T04:15:09.827Z,1.53
2018-12-03T04:17:38.645Z,1.37
2018-12-03T04:20:11.742Z,1.40
2018-12-03T04:22:40.577Z,1.27
2018-12-03T04:25:11.755Z,3.23
2018-12-03T04:27:40.555Z,1.53
2018-12-03T04:30:11.532Z,1.17
2018-12-03T04:32:40.426Z,1.00
2018-12-03T04:35:09.763Z,2.53
2018-12-03T04:37:38.562Z,1.00
2018-12-03T04:40:09.323Z,1.67
2018-12-03T04:42:38.136Z,2.07
2018-12-03T04:45:10.031Z,1.53
2018-12-03T04:47:38.867Z,1.37
2018-12-03T04:50:12.068Z,2.77
2018-12-03T04:52:40.876Z,1.40
2018-12-03T04:55:10.150Z,2.63
2018-12-03T04:57:39.024Z,2.10
2018-12-03T05:00:13.314Z,1.77
2018-12-03T05:02:42.179Z,1.50
2018-12-03T05:05:11.239Z,0.77
2018-12-03T05:07:41.056Z,1.57
2018-12-03T05:10:12.078Z,1.43
2018-12-03T05:12:40.956Z,2.80
2018-12-03T05:15:10.839Z,1.30
2018-12-03T05:17:39.818Z,0.50
2018-12-03T05:20:11.780Z,0.87
2018-12-03T05:22:40.621Z,0.50
2018-12-03T05:25:19.431Z,0.73
2018-12-03T05:27:46.088Z,0.50
2018-12-03T05:30:16.000Z,1.33
2018-12-03T05:32:45.315Z,1.80
2018-12-03T05:35:16.360Z,7.77
2018-12-03T05:37:45.199Z,5.37
2018-12-03T05:40:15.396Z,1.53
2018-12-03T05:42:44.267Z,1.20
2018-12-03T05:45:13.128Z,1.30
2018-12-03T05:47:42.006Z,1.50
2018-12-03T05:50:12.102Z,2.30
2018-12-03T05:52:41.052Z,0.93
2018-12-03T05:55:11.928Z,2.53
2018-12-03T05:57:40.831Z,2.33
2018-12-03T06:00:12.740Z,0.83
2018-12-03T06:02:41.583Z,1.07
2018-12-03T06:05:11.155Z,1.40
2018-12-03T06:07:39.996Z,2.90
2018-12-03T06:10:12.083Z,2.80
2018-12-03T06:12:40.945Z,1.20
2018-12-03T06:15:11.867Z,1.50
2018-12-03T06:17:40.758Z,0.83
2018-12-03T06:20:14.450Z,1.20
2018-12-03T06:22:43.372Z,1.27
2018-12-03T06:25:18.247Z,2.07
2018-12-03T06:27:47.079Z,1.50
2018-12-03T06:30:17.952Z,1.50
2018-12-03T06:32:46.815Z,1.40
2018-12-03T06:35:16.213Z,2.27
2018-12-03T06:37:45.101Z,3.93
2018-12-03T06:40:17.925Z,2.00
2018-12-03T06:42:46.819Z,2.23
2018-12-03T06:45:17.699Z,2.03
2018-12-03T06:47:50.593Z,2.00
2018-12-03T06:50:19.621Z,3.20
2018-12-03T06:52:48.952Z,1.77
2018-12-03T06:55:19.027Z,1.93
2018-12-03T06:57:54.619Z,2.90
2018-12-03T07:00:24.400Z,2.00
2018-12-03T07:02:53.497Z,1.33
2018-12-03T07:05:22.589Z,1.20
2018-12-03T07:07:53.068Z,0.87
2018-12-03T07:10:22.820Z,2.27
2018-12-03T07:12:55.232Z,1.40
2018-12-03T07:15:24.256Z,1.30
2018-12-03T07:17:54.857Z,1.60
2018-12-03T07:20:24.125Z,3.20
2018-12-03T07:22:53.553Z,0.63
2018-12-03T07:25:22.593Z,0.40
2018-12-03T07:27:51.710Z,0.40
2018-12-03T07:30:22.405Z,0.90
2018-12-03T07:32:51.873Z,1.40
2018-12-03T07:35:21.543Z,2.10
2018-12-03T07:37:51.798Z,0.73
2018-12-03T07:40:20.830Z,0.63
2018-12-03T07:42:49.884Z,0.47
2018-12-03T07:45:19.921Z,1.10
2018-12-03T07:47:48.985Z,0.40
2018-12-03T07:50:18.971Z,2.87
2018-12-03T07:52:48.028Z,0.50
2018-12-03T07:55:18.065Z,0.53
2018-12-03T07:57:50.105Z,1.17
2018-12-03T08:00:21.833Z,1.03
2018-12-03T08:02:50.926Z,1.87
2018-12-03T08:05:19.997Z,0.50
2018-12-03T08:07:49.040Z,0.70
2018-12-03T08:10:18.410Z,1.70
2018-12-03T08:12:48.388Z,0.40
2018-12-03T08:16:04.883Z,0.80
2018-12-03T08:18:44.940Z,0.57
2018-12-03T08:21:25.811Z,0.47
2018-12-03T08:23:56.363Z,1.13
2018-12-03T08:26:36.903Z,0.50
2018-12-03T08:29:14.120Z,0.30
2018-12-03T08:31:54.836Z,0.83
2018-12-03T08:34:25.580Z,0.53
2018-12-03T08:37:06.015Z,0.60
2018-12-03T08:39:36.675Z,1.27
2018-12-03T08:42:17.206Z,0.90
2018-12-03T08:44:47.772Z,3.30
2018-12-03T08:47:28.100Z,3.13
2018-12-03T08:50:04.237Z,3.33
2018-12-03T08:52:44.201Z,5.27
2018-12-03T08:55:17.472Z,1.77
2018-12-03T08:57:58.251Z,0.53
2018-12-03T09:00:31.668Z,0.90
2018-12-03T09:03:12.285Z,1.70
2018-12-03T09:05:52.224Z,1.63
2018-12-03T09:08:26.415Z,2.07
2018-12-03T09:11:04.998Z,0.60
2018-12-03T09:13:45.024Z,0.93
2018-12-03T09:16:25.016Z,1.70
2018-12-03T09:19:05.293Z,1.27
2018-12-03T09:21:35.912Z,0.83
2018-12-03T09:24:06.744Z,1.13
2018-12-03T09:26:47.211Z,1.77
2018-12-03T09:29:27.223Z,1.83
2018-12-03T09:32:07.896Z,4.00
2018-12-03T09:34:39.232Z,3.57
2018-12-03T09:37:12.808Z,1.33
2018-12-03T09:39:53.344Z,1.20
2018-12-03T09:42:38.642Z,0.70
2018-12-03T09:45:10.357Z,2.27
2018-12-03T09:47:39.759Z,0.80
2018-12-03T09:50:20.533Z,1.43
2018-12-03T09:53:01.078Z,1.20
2018-12-03T09:55:33.616Z,2.57
2018-12-03T09:58:14.181Z,2.27
2018-12-03T10:00:55.225Z,1.50
2018-12-03T10:03:26.783Z,0.87
2018-12-03T10:06:07.063Z,0.87
2018-12-03T10:08:47.745Z,0.77
2018-12-03T10:11:28.035Z,0.73
2018-12-03T10:13:59.403Z,1.20
2018-12-03T10:16:28.331Z,1.10
2018-12-03T10:19:08.614Z,1.20
2018-12-03T10:21:48.763Z,1.60
2018-12-03T10:24:20.122Z,5.40
2018-12-03T10:27:00.703Z,1.63
2018-12-03T10:29:41.331Z,1.07
2018-12-03T10:32:22.068Z,2.10
2018-12-03T10:34:55.435Z,1.60
2018-12-03T10:37:36.092Z,1.93
2018-12-03T10:40:16.102Z,1.07
2018-12-03T10:42:47.498Z,2.07
2018-12-03T10:45:18.440Z,2.37
2018-12-03T10:47:47.576Z,1.90
2018-12-03T10:50:28.138Z,1.10
2018-12-03T10:53:08.196Z,2.50
2018-12-03T10:55:41.608Z,1.37
2018-12-03T10:58:12.824Z,1.30
2018-12-03T11:00:51.952Z,2.43
2018-12-03T11:03:27.252Z,2.30
2018-12-03T11:06:13.055Z,3.50
2018-12-03T11:08:46.759Z,2.40
2018-12-03T11:11:27.114Z,2.37
2018-12-03T11:14:00.685Z,1.10
2018-12-03T11:16:41.012Z,2.47
2018-12-03T11:21:50.599Z,1.03
2018-12-03T11:24:21.168Z,2.20
2018-12-03T11:27:01.746Z,0.90
2018-12-03T11:29:37.032Z,1.80
2018-12-03T11:32:17.599Z,1.57
2018-12-03T11:34:48.961Z,2.83
2018-12-03T11:37:29.604Z,2.40
2018-12-03T11:40:11.735Z,2.30
2018-12-03T11:42:45.521Z,1.83
2018-12-03T11:45:16.516Z,3.37
2018-12-03T11:47:47.476Z,4.23
2018-12-03T11:50:16.595Z,3.63
2018-12-03T11:52:56.992Z,0.97
2018-12-03T11:55:28.286Z,0.93
2018-12-03T11:58:08.775Z,2.63
2018-12-03T12:00:48.849Z,0.83
2018-12-03T12:03:19.464Z,1.23
2018-12-03T12:05:59.784Z,0.77
2018-12-03T12:08:35.864Z,1.93
2018-12-03T12:11:05.203Z,0.80
2018-12-03T12:13:36.188Z,1.07
2018-12-03T12:16:05.479Z,0.67
2018-12-03T12:18:45.772Z,0.87
2018-12-03T12:23:52.267Z,2.73
2018-12-03T12:26:23.100Z,3.73
2018-12-03T12:28:58.843Z,1.27
2018-12-03T12:31:30.036Z,1.90
2018-12-03T12:34:01.205Z,1.00
2018-12-03T12:36:30.232Z,1.20
2018-12-03T12:38:59.172Z,0.97
2018-12-03T12:41:39.602Z,1.00
2018-12-03T12:44:11.159Z,2.40
2018-12-03T12:46:44.844Z,1.83
2018-12-03T12:49:13.972Z,2.37
2018-12-03T12:51:54.401Z,1.20
2018-12-03T12:54:28.624Z,1.17
2018-12-03T12:57:08.987Z,0.70
2018-12-03T12:59:49.077Z,1.50
2018-12-03T13:02:29.135Z,1.30
2018-12-03T13:05:00.492Z,2.77
2018-12-03T13:07:41.019Z,1.90
2018-12-03T13:10:12.823Z,2.57
2018-12-03T13:12:52.910Z,0.83
2018-12-03T13:15:27.115Z,0.77
2018-12-03T13:18:07.782Z,0.97
2018-12-03T13:20:47.839Z,2.87
2018-12-03T13:23:19.260Z,1.50
2018-12-03T13:25:59.633Z,1.27
2018-12-03T13:28:33.804Z,3.37
2018-12-03T13:31:14.364Z,0.60
2018-12-03T13:33:48.556Z,2.67
2018-12-03T13:36:19.873Z,0.70
2018-12-03T13:39:00.128Z,0.87
2018-12-03T13:41:33.500Z,0.53
2018-12-03T13:44:04.887Z,1.00
2018-12-03T13:46:45.252Z,1.20
2018-12-03T13:49:19.415Z,1.33
2018-12-03T13:52:00.120Z,3.67
2018-12-03T13:54:31.707Z,0.87
2018-12-03T13:57:05.772Z,1.93
2018-12-03T13:59:46.456Z,1.87
2018-12-03T14:02:19.832Z,1.27
2018-12-03T14:05:00.382Z,1.00
2018-12-03T14:07:40.388Z,2.40
2018-12-03T14:10:21.252Z,1.00
2018-12-03T14:13:01.263Z,1.70
2018-12-03T14:15:42.481Z,0.80
2018-12-03T14:18:16.161Z,0.93
2018-12-03T14:20:45.365Z,1.10
2018-12-03T14:23:16.507Z,1.00
2018-12-03T14:25:56.863Z,5.30
2018-12-03T14:28:36.913Z,2.63
2018-12-03T14:31:11.151Z,3.00
2018-12-03T14:33:45.061Z,2.77
2018-12-03T14:36:19.308Z,4.07
2018-12-03T14:38:48.544Z,4.53
2018-12-03T14:41:28.880Z,6.50
2018-12-03T14:43:59.400Z,5.23
2018-12-03T14:46:39.832Z,6.83
2018-12-03T14:49:10.691Z,7.43
2018-12-03T14:51:44.208Z,5.97
2018-12-03T14:54:18.160Z,5.93
2018-12-03T14:56:58.531Z,7.20
2018-12-03T14:59:31.869Z,3.03
2018-12-03T15:02:12.476Z,6.33
2018-12-03T15:04:45.740Z,3.80
2018-12-03T15:07:19.722Z,3.93
2018-12-03T15:09:51.047Z,6.00
2018-12-03T15:12:24.848Z,7.50
2018-12-03T15:14:56.144Z,4.40
2018-12-03T15:17:35.851Z,6.93
2018-12-03T15:20:09.931Z,3.10
2018-12-03T15:22:42.182Z,2.77
2018-12-03T15:25:13.293Z,2.83
2018-12-03T15:27:46.969Z,4.60
2018-12-03T15:30:27.565Z,3.53
2018-12-03T15:32:56.993Z,3.37
2018-12-03T15:35:28.158Z,4.40
2018-12-03T15:38:08.443Z,4.40
2018-12-03T15:40:41.828Z,7.23
2018-12-03T15:43:15.944Z,5.53
2018-12-03T15:45:56.468Z,3.10
2018-12-03T15:48:26.191Z,3.13
2018-12-03T15:50:57.101Z,7.37
2018-12-03T15:53:30.835Z,6.57
2018-12-03T15:56:11.167Z,5.73
2018-12-03T15:58:46.781Z,2.53
2018-12-03T16:01:26.832Z,3.70
2018-12-03T16:03:57.453Z,13.97
2018-12-03T16:06:37.632Z,6.10
2018-12-03T16:09:08.614Z,2.47
2018-12-03T16:11:48.749Z,2.57
2018-12-03T16:14:22.025Z,2.80
2018-12-03T16:16:56.023Z,2.40
2018-12-03T16:19:36.771Z,3.00
2018-12-03T16:22:17.823Z,3.33
2018-12-03T16:24:49.247Z,5.43
2018-12-03T16:27:18.244Z,7.27
2018-12-03T16:29:52.133Z,7.13
2018-12-03T16:32:25.993Z,4.30
2018-12-03T16:34:57.139Z,4.20
2018-12-03T16:37:37.535Z,3.80
2018-12-03T16:40:18.416Z,2.50
2018-12-03T16:42:47.813Z,2.87
2018-12-03T16:45:18.968Z,3.60
2018-12-03T16:47:52.740Z,1.50
2018-12-03T16:50:33.309Z,1.30
2018-12-03T16:53:02.615Z,1.87
2018-12-03T16:55:43.071Z,1.57
2018-12-03T16:58:23.188Z,3.20
2018-12-03T17:01:08.065Z,2.27
2018-12-03T17:03:38.718Z,2.77
2018-12-03T17:06:19.137Z,2.63
2018-12-03T17:08:50.510Z,3.67
2018-12-03T17:11:31.186Z,4.00
2018-12-03T17:14:02.603Z,4.37
2018-12-03T17:16:31.631Z,3.10
2018-12-03T17:19:11.984Z,3.40
2018-12-03T17:21:44.088Z,3.40
2018-12-03T17:24:15.572Z,3.53
2018-12-03T17:26:55.768Z,3.43
2018-12-03T17:29:35.804Z,2.60
2018-12-03T17:32:16.654Z,3.43
2018-12-03T17:34:50.852Z,3.13
2018-12-03T17:37:24.826Z,4.67
2018-12-03T17:40:05.188Z,4.73
2018-12-03T17:42:46.027Z,4.97
2018-12-03T17:45:16.651Z,6.17
2018-12-03T17:47:50.347Z,6.10
2018-12-03T17:50:31.015Z,6.63
2018-12-03T17:53:01.571Z,7.33
2018-12-03T17:55:42.200Z,7.63
2018-12-03T17:58:22.246Z,8.53
2018-12-03T18:00:55.572Z,9.80
2018-12-03T18:03:26.720Z,12.10
2018-12-03T18:06:07.155Z,12.87
2018-12-03T18:08:47.938Z,13.50
2018-12-03T18:11:18.546Z,13.40
2018-12-03T18:13:49.468Z,15.27
2018-12-03T18:16:29.916Z,17.97
2018-12-03T18:19:10.747Z,15.17
2018-12-03T18:21:44.940Z,14.37
2018-12-03T18:27:18.447Z,15.13
2018-12-03T18:30:05.116Z,14.20
2018-12-03T18:32:38.668Z,14.70
2018-12-03T18:35:12.063Z,15.67
2018-12-03T18:37:52.713Z,14.17
2018-12-03T18:40:32.932Z,12.80
2018-12-03T18:43:03.171Z,11.13
2018-12-03T18:45:43.423Z,7.33
2018-12-03T18:48:23.616Z,10.00
2018-12-03T18:50:54.240Z,12.47
2018-12-03T18:53:25.206Z,7.73
2018-12-03T18:56:05.644Z,24.47
2018-12-03T18:58:45.796Z,25.63
2018-12-03T19:01:26.712Z,34.63
2018-12-03T19:03:59.219Z,17.27
2018-12-03T19:06:39.628Z,12.23
2018-12-03T19:09:19.582Z,5.83
2018-12-03T19:12:00.468Z,3.03
2018-12-03T19:14:32.015Z,12.70
2018-12-03T19:17:12.576Z,11.13
2018-12-03T19:19:52.504Z,9.03
2018-12-03T19:22:23.884Z,7.73
2018-12-03T19:25:04.328Z,11.20
2018-12-03T19:27:45.280Z,7.83
2018-12-03T19:30:26.088Z,7.00
2018-12-03T19:33:06.201Z,5.67
2018-12-03T19:35:37.646Z,4.97
2018-12-03T19:38:08.786Z,4.83
2018-12-03T19:40:49.312Z,5.07
2018-12-03T19:43:22.599Z,4.53
2018-12-03T19:45:53.936Z,4.00
2018-12-03T19:51:27.584Z,7.50
2018-12-03T19:54:13.384Z,8.77
2018-12-03T19:56:42.836Z,9.47
2018-12-03T19:59:16.400Z,9.67
2018-12-03T20:01:56.993Z,9.23
2018-12-03T20:04:34.072Z,6.80
2018-12-03T20:07:14.644Z,2.50
2018-12-03T20:10:01.534Z,2.10
2018-12-03T20:12:41.503Z,1.60
2018-12-03T20:15:12.352Z,11.67
2018-12-03T20:17:41.397Z,2.47
2018-12-03T20:20:10.413Z,3.27
2018-12-03T20:22:50.668Z,3.43
2018-12-03T20:25:22.179Z,3.37
2018-12-03T20:28:07.269Z,4.17
2018-12-03T20:30:45.496Z,3.67
2018-12-03T20:33:16.020Z,2.43
2018-12-03T20:35:56.448Z,4.17
2018-12-03T20:38:37.360Z,6.73
2018-12-03T20:41:17.473Z,3.13
2018-12-03T20:43:48.119Z,2.97
2018-12-03T20:46:28.472Z,3.90
2018-12-03T20:49:03.266Z,3.37
2018-12-03T20:51:43.362Z,3.30
2018-12-03T20:54:21.475Z,1.90
2018-12-03T20:57:02.193Z,4.50
2018-12-03T20:59:42.995Z,4.07
2018-12-03T21:02:23.019Z,2.97
2018-12-03T21:04:54.468Z,4.33
2018-12-03T21:07:34.796Z,1.93
2018-12-03T21:10:15.649Z,3.27
2018-12-03T21:12:55.693Z,2.63
2018-12-03T21:15:35.896Z,2.27
2018-12-03T21:18:09.364Z,2.63
2018-12-03T21:20:49.912Z,2.10
2018-12-03T21:23:30.632Z,1.70
2018-12-03T21:26:01.360Z,2.13
2018-12-03T21:28:30.295Z,3.30
2018-12-03T21:31:10.964Z,1.97
2018-12-03T21:33:41.479Z,1.70
2018-12-03T21:36:22.063Z,2.47
2018-12-03T21:39:02.179Z,1.33
2018-12-03T21:41:35.547Z,3.53
2018-12-03T21:44:04.756Z,1.37
2018-12-03T21:46:45.034Z,1.67
2018-12-03T21:49:25.053Z,1.77
2018-12-03T21:52:06.952Z,1.60
2018-12-03T21:54:37.576Z,2.00
2018-12-03T21:57:18.579Z,1.77
2018-12-03T21:59:59.435Z,2.10
2018-12-03T22:02:39.991Z,1.60
2018-12-03T22:05:10.919Z,2.63
2018-12-03T22:07:52.249Z,1.30
2018-12-03T22:10:33.246Z,1.33
2018-12-03T22:13:12.365Z,1.20
2018-12-03T22:15:55.165Z,2.77
2018-12-03T22:18:41.037Z,2.03
2018-12-03T22:21:21.217Z,0.80
2018-12-03T22:23:52.486Z,2.60
2018-12-03T22:26:23.660Z,1.20
2018-12-03T22:29:04.235Z,1.20
2018-12-03T22:31:45.071Z,1.17
2018-12-03T22:34:22.951Z,1.10
2018-12-03T22:36:54.411Z,1.70
2018-12-03T22:39:34.927Z,2.17
2018-12-03T22:42:14.916Z,1.30
2018-12-03T22:44:46.327Z,2.37
2018-12-03T22:47:26.959Z,0.90
2018-12-03T22:49:57.575Z,1.43
2018-12-03T22:52:26.700Z,2.40
2018-12-03T22:54:57.739Z,1.77
2018-12-03T22:57:38.047Z,0.73
2018-12-03T23:00:35.748Z,0.93
2018-12-03T23:03:16.175Z,1.00
2018-12-03T23:05:56.332Z,0.63
2018-12-03T23:08:36.323Z,1.00
2018-12-03T23:11:07.773Z,0.90
2018-12-03T23:13:48.109Z,3.17
2018-12-03T23:16:21.395Z,1.10
2018-12-03T23:19:02.196Z,1.50
2018-12-03T23:21:32.724Z,0.87
2018-12-03T23:24:03.744Z,1.43
2018-12-03T23:26:44.347Z,2.37
2018-12-03T23:29:24.249Z,1.80
2018-12-03T23:32:04.344Z,1.90
2018-12-03T23:34:37.692Z,1.67
2018-12-03T23:37:18.544Z,2.33
2018-12-03T23:39:59.343Z,2.37
2018-12-03T23:42:40.263Z,1.40
2018-12-03T23:45:10.783Z,3.07
2018-12-03T23:47:41.917Z,1.77
2018-12-03T23:50:10.929Z,2.37
2018-12-03T23:52:51.436Z,4.27
2018-12-03T23:55:21.931Z,3.53
2018-12-03T23:58:02.463Z,1.27
